createdAt,value
2019-03-13T00:02:29.135Z,135.18
2019-03-13T00:05:00.491Z,127.15
2019-03-13T00:07:31.176Z,133.72
2019-03-13T00:10:02.123Z,127.87
2019-03-13T00:12:33.012Z,126.78
2019-03-13T00:15:04.176Z,132.25
2019-03-13T00:17:34.897Z,127.17
2019-03-13T00:20:06.796Z,127.45
2019-03-13T00:22:37.634Z,127.15
2019-03-13T00:25:10.038Z,120.87
2019-03-13T00:27:43.985Z,131.22
2019-03-13T00:30:14.965Z,141.07
2019-03-13T00:32:46.033Z,133.50
2019-03-13T00:35:16.718Z,136.60
2019-03-13T00:37:55.429Z,128.53
2019-03-13T00:40:26.294Z,134.43
2019-03-13T00:42:57.215Z,123.62
2019-03-13T00:45:32.258Z,124.38
2019-03-13T00:48:04.846Z,127.80
2019-03-13T00:50:36.104Z,120.40
2019-03-13T00:53:09.609Z,127.42
2019-03-13T00:55:40.578Z,127.90
2019-03-13T00:58:11.516Z,131.70
2019-03-13T01:00:44.050Z,130.55
2019-03-13T01:03:16.784Z,135.40
2019-03-13T01:05:49.202Z,129.05
2019-03-13T01:08:28.111Z,125.27
2019-03-13T01:11:06.690Z,129.12
2019-03-13T01:13:36.344Z,165.77
2019-03-13T01:16:08.397Z,165.07
2019-03-13T01:18:39.477Z,164.45
2019-03-13T01:21:10.375Z,159.45
2019-03-13T01:23:42.066Z,158.75
2019-03-13T01:26:13.468Z,163.03
2019-03-13T01:28:44.807Z,168.02
2019-03-13T01:31:17.035Z,166.45
2019-03-13T01:33:48.248Z,158.45
2019-03-13T01:36:19.175Z,169.35
2019-03-13T01:38:51.805Z,168.28
2019-03-13T01:41:23.978Z,167.13
2019-03-13T01:43:58.363Z,173.43
2019-03-13T01:46:29.628Z,183.80
2019-03-13T01:49:00.603Z,182.07
2019-03-13T01:51:33.839Z,178.10
2019-03-13T01:54:08.805Z,176.42
2019-03-13T01:56:41.665Z,170.90
2019-03-13T01:59:12.180Z,177.45
2019-03-13T02:01:47.735Z,179.20
2019-03-13T02:04:17.732Z,166.03
2019-03-13T02:06:48.764Z,167.13
2019-03-13T02:09:21.070Z,168.20
2019-03-13T02:11:52.369Z,148.90
2019-03-13T02:14:24.221Z,153.90
2019-03-13T02:16:57.240Z,160.35
2019-03-13T02:19:30.534Z,156.65
2019-03-13T02:22:02.099Z,161.82
2019-03-13T02:24:38.366Z,171.93
2019-03-13T02:27:11.407Z,160.70
2019-03-13T02:29:43.962Z,160.55
2019-03-13T02:32:28.546Z,165.73
2019-03-13T02:35:02.812Z,158.57
2019-03-13T02:37:38.156Z,163.35
2019-03-13T02:40:17.450Z,158.22
2019-03-13T02:42:51.637Z,146.80
2019-03-13T02:45:22.834Z,156.65
2019-03-13T02:47:53.816Z,160.25
2019-03-13T02:50:25.817Z,147.13
2019-03-13T02:52:57.234Z,145.30
2019-03-13T02:55:28.169Z,149.27
2019-03-13T02:57:59.543Z,147.40
2019-03-13T03:00:37.181Z,146.90
2019-03-13T03:03:08.836Z,142.62
2019-03-13T03:05:39.859Z,146.93
2019-03-13T03:08:12.045Z,148.43
2019-03-13T03:10:48.249Z,143.50
2019-03-13T03:13:20.047Z,141.10
2019-03-13T03:15:55.759Z,126.22
2019-03-13T03:18:29.549Z,120.42
2019-03-13T03:21:01.873Z,136.85
2019-03-13T03:23:35.413Z,121.95
2019-03-13T03:26:13.017Z,121.00
2019-03-13T03:28:45.317Z,123.67
2019-03-13T03:31:18.470Z,127.50
2019-03-13T03:33:53.498Z,121.02
2019-03-13T03:36:25.185Z,117.72
2019-03-13T03:39:01.256Z,135.85
2019-03-13T03:41:32.967Z,118.42
2019-03-13T03:44:07.119Z,114.45
2019-03-13T03:46:40.316Z,124.60
2019-03-13T03:49:14.063Z,117.85
2019-03-13T03:51:49.595Z,112.47
2019-03-13T03:54:21.263Z,117.37
2019-03-13T03:56:54.304Z,114.52
2019-03-13T03:59:27.135Z,118.53
2019-03-13T04:02:03.100Z,112.00
2019-03-13T04:04:34.288Z,115.12
2019-03-13T04:07:05.778Z,123.78
2019-03-13T04:09:37.373Z,110.52
2019-03-13T04:18:37.282Z,113.45
2019-03-13T04:21:12.203Z,98.80
2019-03-13T04:23:43.108Z,98.17
2019-03-13T04:26:19.067Z,103.45
2019-03-13T04:28:51.974Z,96.08
2019-03-13T04:31:23.148Z,107.63
2019-03-13T04:33:55.616Z,94.50
2019-03-13T04:36:31.315Z,90.75
2019-03-13T04:39:02.592Z,89.70
2019-03-13T04:41:33.617Z,84.03
2019-03-13T04:44:04.444Z,87.85
2019-03-13T04:46:36.606Z,85.87
2019-03-13T04:49:09.439Z,86.08
2019-03-13T04:51:40.566Z,89.00
2019-03-13T04:54:14.170Z,82.78
2019-03-13T04:56:46.267Z,76.90
2019-03-13T04:59:21.994Z,72.55
2019-03-13T05:01:58.764Z,67.60
2019-03-13T05:04:29.212Z,71.75
2019-03-13T05:07:00.703Z,66.05
2019-03-13T05:09:34.138Z,67.60
2019-03-13T05:12:06.190Z,68.75
2019-03-13T05:14:36.878Z,60.73
2019-03-13T05:17:07.501Z,54.30
2019-03-13T05:19:39.003Z,51.53
2019-03-13T05:22:13.654Z,53.13
2019-03-13T05:24:49.002Z,54.77
2019-03-13T05:27:19.952Z,59.67
2019-03-13T05:29:50.690Z,58.87
2019-03-13T05:32:21.819Z,56.63
2019-03-13T05:34:55.793Z,49.95
2019-03-13T05:37:32.304Z,54.13
2019-03-13T05:40:10.213Z,51.30
2019-03-13T05:42:41.107Z,51.55
2019-03-13T05:45:11.775Z,50.95
2019-03-13T05:47:42.813Z,47.60
2019-03-13T05:50:14.066Z,44.50
2019-03-13T05:52:44.807Z,45.58
2019-03-13T05:55:16.264Z,53.05
2019-03-13T05:57:47.505Z,45.78
2019-03-13T06:00:24.846Z,47.67
2019-03-13T06:02:59.534Z,40.25
2019-03-13T06:05:32.171Z,40.65
2019-03-13T06:08:04.392Z,45.65
2019-03-13T06:10:35.372Z,50.73
2019-03-13T06:13:10.016Z,45.95
2019-03-13T06:15:44.764Z,45.58
2019-03-13T06:18:20.302Z,49.42
2019-03-13T06:20:52.382Z,50.20
2019-03-13T06:23:23.351Z,47.53
2019-03-13T06:25:55.236Z,46.58
2019-03-13T06:28:28.506Z,41.53
2019-03-13T06:31:00.863Z,41.50
2019-03-13T06:33:37.611Z,41.20
2019-03-13T06:36:09.038Z,39.80
2019-03-13T06:38:40.088Z,47.95
2019-03-13T06:41:12.017Z,43.75
2019-03-13T06:43:43.024Z,43.20
2019-03-13T06:46:13.995Z,46.13
2019-03-13T06:48:44.634Z,48.48
2019-03-13T06:51:15.642Z,45.30
2019-03-13T06:53:48.868Z,37.85
2019-03-13T06:56:19.676Z,40.95
2019-03-13T06:58:53.607Z,38.45
2019-03-13T07:01:27.160Z,37.83
2019-03-13T07:04:00.670Z,44.42
2019-03-13T07:06:33.658Z,40.15
2019-03-13T07:09:08.327Z,42.55
2019-03-13T07:11:40.497Z,41.33
2019-03-13T07:14:15.542Z,40.45
2019-03-13T07:16:48.841Z,41.98
2019-03-13T07:19:22.790Z,45.58
2019-03-13T07:21:55.710Z,39.67
2019-03-13T07:24:30.319Z,42.45
2019-03-13T07:27:03.102Z,39.63
2019-03-13T07:29:38.075Z,42.20
2019-03-13T07:32:17.622Z,39.88
2019-03-13T07:34:48.667Z,42.80
2019-03-13T07:37:20.822Z,43.28
2019-03-13T07:39:55.125Z,38.78
2019-03-13T07:42:27.118Z,37.35
2019-03-13T07:44:59.663Z,35.95
2019-03-13T07:47:32.284Z,41.18
2019-03-13T07:50:04.757Z,37.88
2019-03-13T07:52:37.247Z,42.67
2019-03-13T07:55:11.062Z,38.95
2019-03-13T07:57:44.651Z,40.75
2019-03-13T08:00:17.717Z,35.10
2019-03-13T08:05:40.166Z,36.10
2019-03-13T08:08:12.391Z,43.17
2019-03-13T08:10:46.191Z,34.70
2019-03-13T08:13:19.948Z,35.48
2019-03-13T08:15:55.344Z,39.73
2019-03-13T08:18:27.667Z,38.02
2019-03-13T08:21:01.222Z,37.35
2019-03-13T08:23:33.657Z,38.15
2019-03-13T08:26:08.378Z,35.65
2019-03-13T08:28:40.655Z,33.02
2019-03-13T08:31:12.909Z,29.63
2019-03-13T08:33:47.840Z,30.35
2019-03-13T08:36:25.234Z,28.25
2019-03-13T08:39:01.186Z,31.17
2019-03-13T08:41:33.460Z,31.65
2019-03-13T08:44:06.154Z,29.92
2019-03-13T08:46:41.275Z,34.20
2019-03-13T08:49:13.089Z,29.92
2019-03-13T08:51:45.862Z,33.00
2019-03-13T08:54:18.137Z,27.95
2019-03-13T08:56:50.540Z,29.57
2019-03-13T08:59:23.723Z,28.47
2019-03-13T09:02:00.574Z,28.92
2019-03-13T09:04:35.119Z,25.50
2019-03-13T09:07:11.469Z,28.47
2019-03-13T09:09:43.852Z,27.20
2019-03-13T09:12:16.504Z,25.40
2019-03-13T09:14:48.766Z,27.58
2019-03-13T09:17:20.884Z,25.92
2019-03-13T09:19:52.987Z,24.92
2019-03-13T09:22:27.027Z,27.70
2019-03-13T09:25:11.261Z,23.30
2019-03-13T09:27:32.599Z,25.85
2019-03-13T09:30:05.107Z,23.67
2019-03-13T09:32:37.434Z,20.43
2019-03-13T09:35:10.792Z,22.98
2019-03-13T09:37:42.917Z,20.30
2019-03-13T09:40:15.435Z,20.05
2019-03-13T09:42:47.872Z,25.37
2019-03-13T09:45:20.539Z,21.23
2019-03-13T09:47:52.891Z,20.77
2019-03-13T09:50:27.011Z,23.00
2019-03-13T09:52:59.819Z,21.00
2019-03-13T09:55:31.886Z,19.30
2019-03-13T09:58:04.005Z,17.95
2019-03-13T10:00:36.003Z,19.55
2019-03-13T10:03:09.445Z,20.25
2019-03-13T10:14:45.390Z,24.65
2019-03-13T10:17:17.915Z,24.82
2019-03-13T10:19:54.746Z,23.20
2019-03-13T10:22:27.185Z,21.87
2019-03-13T10:24:59.290Z,20.80
2019-03-13T10:27:35.744Z,23.12
2019-03-13T10:30:10.264Z,19.80
2019-03-13T10:32:42.772Z,27.10
2019-03-13T10:35:14.605Z,24.30
2019-03-13T10:37:46.731Z,25.40
2019-03-13T10:40:18.977Z,30.55
2019-03-13T10:42:51.232Z,22.07
2019-03-13T10:45:23.312Z,22.05
2019-03-13T10:47:56.378Z,19.98
2019-03-13T10:50:27.114Z,26.30
2019-03-13T10:52:59.620Z,22.22
2019-03-13T10:55:30.248Z,23.92
2019-03-13T10:58:02.802Z,25.65
2019-03-13T11:00:35.082Z,27.80
2019-03-13T11:03:10.201Z,26.07
2019-03-13T11:05:42.331Z,26.05
2019-03-13T11:08:18.662Z,25.32
2019-03-13T11:10:50.511Z,33.40
2019-03-13T11:13:25.987Z,32.95
2019-03-13T11:15:57.584Z,26.52
2019-03-13T11:18:29.856Z,34.73
2019-03-13T11:21:08.549Z,32.00
2019-03-13T11:23:44.286Z,29.47
2019-03-13T11:26:16.664Z,31.37
2019-03-13T11:28:48.967Z,28.75
2019-03-13T11:31:21.002Z,28.47
2019-03-13T11:33:54.701Z,29.50
2019-03-13T11:36:27.176Z,29.52
2019-03-13T11:38:59.426Z,33.67
2019-03-13T11:41:31.366Z,31.35
2019-03-13T11:44:03.491Z,35.43
2019-03-13T11:46:38.656Z,28.77
2019-03-13T11:49:10.992Z,37.48
2019-03-13T11:51:43.387Z,39.23
2019-03-13T11:54:15.764Z,37.13
2019-03-13T11:56:48.231Z,34.80
2019-03-13T11:59:21.110Z,35.73
2019-03-13T12:01:53.377Z,36.38
2019-03-13T12:04:25.664Z,34.45
2019-03-13T12:06:56.306Z,43.48
2019-03-13T12:09:28.270Z,34.98
2019-03-13T12:12:00.385Z,39.20
2019-03-13T12:14:32.804Z,37.30
2019-03-13T12:17:06.908Z,37.20
2019-03-13T12:19:40.323Z,41.40
2019-03-13T12:22:12.603Z,35.23
2019-03-13T12:24:47.955Z,42.93
2019-03-13T12:27:19.895Z,31.12
2019-03-13T12:29:53.291Z,29.48
2019-03-13T12:32:25.427Z,27.52
2019-03-13T12:34:58.895Z,30.60
2019-03-13T12:37:34.125Z,29.40
2019-03-13T12:40:09.467Z,26.97
2019-03-13T12:42:39.688Z,30.60
2019-03-13T12:45:14.505Z,28.38
2019-03-13T12:47:46.894Z,27.65
2019-03-13T12:50:20.469Z,32.08
2019-03-13T12:52:52.859Z,26.30
2019-03-13T12:55:25.447Z,30.32
2019-03-13T12:57:58.507Z,28.92
2019-03-13T13:00:31.956Z,33.60
2019-03-13T13:03:04.209Z,31.33
2019-03-13T13:05:36.457Z,34.45
2019-03-13T13:08:09.736Z,33.95
2019-03-13T13:10:42.855Z,29.80
2019-03-13T13:13:16.250Z,31.97
2019-03-13T13:15:48.823Z,33.65
2019-03-13T13:18:21.216Z,29.00
2019-03-13T13:20:52.072Z,30.62
2019-03-13T13:23:23.085Z,28.50
2019-03-13T13:25:54.840Z,38.08
2019-03-13T13:28:25.589Z,32.00
2019-03-13T13:30:56.458Z,25.25
2019-03-13T13:33:27.176Z,31.90
2019-03-13T13:35:58.124Z,31.07
2019-03-13T13:38:28.852Z,37.60
2019-03-13T13:40:59.681Z,34.05
2019-03-13T13:43:30.417Z,32.83
2019-03-13T13:46:06.067Z,30.62
2019-03-13T13:48:38.244Z,39.00
2019-03-13T13:51:09.311Z,39.67
2019-03-13T13:53:40.642Z,34.88
2019-03-13T13:56:11.636Z,38.45
2019-03-13T13:58:42.429Z,34.85
2019-03-13T14:01:13.972Z,34.83
2019-03-13T14:03:44.973Z,36.48
2019-03-13T14:06:18.863Z,37.45
2019-03-13T14:08:49.888Z,41.45
2019-03-13T14:11:20.698Z,42.20
2019-03-13T14:13:51.493Z,39.15
2019-03-13T14:16:22.519Z,39.90
2019-03-13T14:18:53.449Z,42.08
2019-03-13T14:21:28.359Z,41.92
2019-03-13T14:23:59.421Z,51.73
2019-03-13T14:26:29.987Z,50.10
2019-03-13T14:29:00.919Z,42.93
2019-03-13T14:31:31.625Z,44.03
2019-03-13T14:34:03.826Z,56.10
2019-03-13T14:36:34.492Z,44.45
2019-03-13T14:39:05.515Z,51.05
2019-03-13T14:41:36.280Z,50.55
2019-03-13T14:44:07.309Z,51.00
2019-03-13T14:46:38.117Z,50.80
2019-03-13T14:49:08.894Z,44.05
2019-03-13T14:51:39.983Z,43.98
2019-03-13T14:54:10.567Z,46.05
2019-03-13T14:56:41.666Z,43.90
2019-03-13T14:59:15.358Z,40.45
2019-03-13T15:01:47.087Z,43.30
2019-03-13T15:04:19.334Z,37.95
2019-03-13T15:06:50.170Z,41.50
2019-03-13T15:09:21.171Z,44.50
2019-03-13T15:11:52.003Z,39.73
2019-03-13T15:14:22.876Z,46.88
2019-03-13T15:16:53.845Z,42.60
2019-03-13T15:19:24.838Z,46.13
2019-03-13T15:21:55.620Z,43.05
2019-03-13T15:24:26.238Z,47.93
2019-03-13T15:26:57.096Z,41.15
2019-03-13T15:29:27.987Z,48.30
2019-03-13T15:31:58.572Z,49.50
2019-03-13T15:34:29.123Z,50.05
2019-03-13T15:37:01.151Z,50.23
2019-03-13T15:39:31.977Z,51.02
2019-03-13T15:42:02.843Z,49.98
2019-03-13T15:44:33.669Z,49.45
2019-03-13T15:47:04.361Z,53.42
2019-03-13T15:49:35.016Z,49.93
2019-03-13T15:52:06.173Z,51.15
2019-03-13T15:54:37.145Z,45.45
2019-03-13T15:57:08.588Z,44.63
2019-03-13T15:59:39.230Z,49.10
2019-03-13T16:02:09.900Z,50.10
2019-03-13T16:04:41.605Z,48.60
2019-03-13T16:07:12.731Z,50.50
2019-03-13T16:09:43.499Z,51.15
2019-03-13T16:12:14.178Z,52.20
2019-03-13T16:14:47.822Z,42.80
2019-03-13T16:17:18.852Z,49.98
2019-03-13T16:19:49.864Z,48.55
2019-03-13T16:22:22.072Z,52.40
2019-03-13T16:24:52.794Z,50.52
2019-03-13T16:27:23.549Z,50.43
2019-03-13T16:29:54.586Z,44.45
2019-03-13T16:32:25.694Z,44.03
2019-03-13T16:35:06.722Z,46.35
2019-03-13T16:37:37.766Z,42.75
2019-03-13T16:40:11.387Z,48.30
2019-03-13T16:42:42.294Z,49.23
2019-03-13T16:45:17.810Z,56.48
2019-03-13T16:47:48.701Z,53.70
2019-03-13T16:50:21.915Z,53.85
2019-03-13T16:52:52.643Z,53.48
2019-03-13T16:55:23.879Z,59.60
2019-03-13T16:57:54.853Z,52.98
2019-03-13T17:00:28.950Z,52.90
2019-03-13T17:02:59.596Z,57.67
2019-03-13T17:05:30.555Z,54.98
2019-03-13T17:08:01.281Z,56.45
2019-03-13T17:10:32.456Z,50.52
2019-03-13T17:13:05.488Z,54.50
2019-03-13T17:15:35.355Z,51.02
2019-03-13T17:18:07.557Z,55.28
2019-03-13T17:20:40.736Z,49.58
2019-03-13T17:23:11.519Z,48.13
2019-03-13T17:25:42.355Z,54.30
2019-03-13T17:28:13.748Z,55.75
2019-03-13T17:30:44.475Z,55.65
2019-03-13T17:33:15.348Z,56.45
2019-03-13T17:35:46.454Z,57.27
2019-03-13T17:38:17.105Z,58.68
2019-03-13T17:40:50.878Z,51.13
2019-03-13T17:43:21.423Z,49.75
2019-03-13T17:45:53.883Z,58.42
2019-03-13T17:48:24.577Z,52.65
2019-03-13T17:50:55.374Z,49.88
2019-03-13T17:53:26.202Z,52.17
2019-03-13T17:55:56.965Z,54.75
2019-03-13T17:58:27.880Z,51.05
2019-03-13T18:00:59.000Z,53.17
2019-03-13T18:03:29.727Z,51.77
2019-03-13T18:06:00.590Z,52.58
2019-03-13T18:08:31.079Z,48.58
2019-03-13T18:11:02.059Z,47.13
2019-03-13T18:13:32.871Z,54.60
2019-03-13T18:16:03.859Z,48.73
2019-03-13T18:18:34.432Z,51.45
2019-03-13T18:21:05.342Z,48.25
2019-03-13T18:23:36.353Z,54.15
2019-03-13T18:26:07.300Z,47.30
2019-03-13T18:28:41.023Z,54.63
2019-03-13T18:31:11.908Z,46.45
2019-03-13T18:33:43.362Z,48.30
2019-03-13T18:36:14.406Z,51.88
2019-03-13T18:38:45.199Z,52.48
2019-03-13T18:41:15.576Z,54.77
2019-03-13T18:43:46.371Z,53.08
2019-03-13T18:46:17.196Z,45.60
2019-03-13T18:48:48.043Z,51.92
2019-03-13T18:51:21.115Z,53.40
2019-03-13T18:53:51.945Z,48.87
2019-03-13T18:56:27.219Z,53.52
2019-03-13T18:58:57.943Z,51.15
2019-03-13T19:01:28.877Z,49.23
2019-03-13T19:03:59.524Z,53.63
2019-03-13T19:06:30.141Z,52.73
2019-03-13T19:09:01.229Z,48.35
2019-03-13T19:11:32.121Z,53.33
2019-03-13T19:14:03.587Z,50.05
2019-03-13T19:16:34.443Z,55.08
2019-03-13T19:19:05.194Z,50.70
2019-03-13T19:21:36.275Z,57.00
2019-03-13T19:24:06.868Z,52.05
2019-03-13T19:26:37.461Z,53.85
2019-03-13T19:29:09.252Z,49.58
2019-03-13T19:31:39.984Z,48.05
2019-03-13T19:34:11.153Z,48.60
2019-03-13T19:36:42.062Z,47.40
2019-03-13T19:39:12.673Z,55.92
2019-03-13T19:41:43.463Z,48.05
2019-03-13T19:44:14.366Z,48.23
2019-03-13T19:46:45.040Z,50.05
2019-03-13T19:49:15.972Z,55.55
2019-03-13T19:51:46.775Z,51.40
2019-03-13T19:54:17.739Z,55.98
2019-03-13T19:56:48.624Z,54.70
2019-03-13T19:59:19.586Z,56.28
2019-03-13T20:01:50.429Z,51.33
2019-03-13T20:04:21.040Z,51.10
2019-03-13T20:06:51.889Z,55.50
2019-03-13T20:09:23.705Z,52.85
2019-03-13T20:11:54.473Z,53.65
2019-03-13T20:14:26.710Z,50.12
2019-03-13T20:16:57.596Z,57.43
2019-03-13T20:19:28.602Z,53.60
2019-03-13T20:21:59.414Z,48.78
2019-03-13T20:24:30.150Z,53.70
2019-03-13T20:27:01.008Z,57.65
2019-03-13T20:29:31.831Z,51.00
2019-03-13T20:32:02.315Z,47.58
2019-03-13T20:34:34.123Z,57.23
2019-03-13T20:37:05.080Z,52.45
2019-03-13T20:39:35.794Z,53.65
2019-03-13T20:42:06.628Z,52.40
2019-03-13T20:44:37.307Z,56.20
2019-03-13T20:47:08.261Z,57.55
2019-03-13T20:49:39.612Z,57.25
2019-03-13T20:52:10.568Z,56.13
2019-03-13T20:54:41.467Z,59.20
2019-03-13T20:57:12.474Z,53.35
2019-03-13T20:59:43.507Z,50.23
2019-03-13T21:02:14.525Z,56.08
2019-03-13T21:04:45.678Z,59.53
2019-03-13T21:07:22.036Z,51.65
2019-03-13T21:09:55.420Z,57.48
2019-03-13T21:12:25.399Z,53.08
2019-03-13T21:14:58.157Z,49.85
2019-03-13T21:17:29.287Z,48.80
2019-03-13T21:20:00.069Z,50.65
2019-03-13T21:22:31.096Z,57.95
2019-03-13T21:25:01.969Z,62.53
2019-03-13T21:27:33.080Z,63.02
2019-03-13T21:30:04.051Z,58.68
2019-03-13T21:32:35.067Z,59.30
2019-03-13T21:35:06.762Z,58.98
2019-03-13T21:37:37.724Z,64.15
2019-03-13T21:40:11.341Z,61.92
2019-03-13T21:42:42.540Z,62.60
2019-03-13T21:45:22.393Z,73.15
2019-03-13T21:47:47.766Z,72.75
2019-03-13T21:50:20.595Z,71.87
2019-03-13T21:52:54.329Z,76.72
2019-03-13T21:55:27.312Z,69.53
2019-03-13T21:57:57.773Z,63.50
2019-03-13T22:00:29.618Z,59.45
2019-03-13T22:03:04.575Z,59.90
2019-03-13T22:05:35.600Z,58.02
2019-03-13T22:08:06.485Z,57.90
2019-03-13T22:10:37.457Z,58.25
2019-03-13T22:13:08.490Z,57.00
2019-03-13T22:15:39.402Z,60.25
2019-03-13T22:18:10.614Z,57.88
2019-03-13T22:20:41.732Z,64.37
2019-03-13T22:23:12.732Z,63.38
2019-03-13T22:25:43.710Z,62.85
2019-03-13T22:28:14.465Z,62.10
2019-03-13T22:30:45.372Z,68.52
2019-03-13T22:33:17.498Z,62.65
2019-03-13T22:35:48.712Z,62.95
2019-03-13T22:38:19.783Z,58.02
2019-03-13T22:40:50.843Z,59.77
2019-03-13T22:43:21.777Z,61.88
2019-03-13T22:45:53.020Z,66.75
2019-03-13T22:48:24.154Z,62.08
2019-03-13T22:50:55.182Z,61.40
2019-03-13T22:53:26.051Z,62.62
2019-03-13T22:55:57.156Z,63.20
2019-03-13T22:58:27.870Z,60.55
2019-03-13T23:01:02.455Z,60.73
2019-03-13T23:03:33.324Z,65.52
2019-03-13T23:06:04.745Z,59.40
2019-03-13T23:08:35.691Z,66.25
2019-03-13T23:11:06.781Z,60.52
2019-03-13T23:13:38.022Z,62.78
2019-03-13T23:16:08.892Z,66.07
2019-03-13T23:18:39.745Z,63.65
2019-03-13T23:21:11.246Z,71.53
2019-03-13T23:23:42.012Z,67.47
2019-03-13T23:26:13.036Z,62.85
2019-03-13T23:28:44.174Z,61.45
2019-03-13T23:31:15.117Z,65.47
2019-03-13T23:33:46.277Z,76.22
2019-03-13T23:36:17.396Z,69.92
2019-03-13T23:38:48.371Z,67.15
2019-03-13T23:41:19.369Z,71.33
2019-03-13T23:43:50.595Z,69.20
2019-03-13T23:46:21.955Z,70.05
2019-03-13T23:48:53.167Z,75.67
2019-03-13T23:51:24.266Z,72.90
2019-03-13T23:53:55.480Z,79.07
2019-03-13T23:56:26.790Z,86.70
2019-03-13T23:58:57.681Z,84.32
